createdAt,value
2022-12-08T00:01:11.399Z,22.00
2022-12-08T00:03:39.533Z,21.25
2022-12-08T00:06:26.156Z,23.00
2022-12-08T00:09:11.244Z,20.00
2022-12-08T00:11:39.612Z,19.75
2022-12-08T00:14:08.872Z,20.75
2022-12-08T00:16:36.762Z,20.00
2022-12-08T00:19:05.428Z,17.00
2022-12-08T00:21:33.342Z,18.25
2022-12-08T00:24:01.232Z,17.00
2022-12-08T00:26:29.148Z,19.75
2022-12-08T00:28:57.597Z,16.75
2022-12-08T00:31:26.890Z,17.75
2022-12-08T00:33:54.800Z,19.00
2022-12-08T00:36:22.672Z,17.25
2022-12-08T00:38:50.831Z,18.00
2022-12-08T00:41:40.772Z,16.00
2022-12-08T00:44:08.689Z,17.50
2022-12-08T00:46:38.042Z,16.50
2022-12-08T00:49:06.719Z,18.00
2022-12-08T00:51:34.869Z,16.25
2022-12-08T00:54:02.866Z,14.50
2022-12-08T00:56:30.748Z,13.00
2022-12-08T00:58:58.873Z,13.75
2022-12-08T01:01:26.938Z,14.50
2022-12-08T01:03:56.262Z,13.75
2022-12-08T01:06:24.230Z,14.00
2022-12-08T01:08:52.360Z,13.00
2022-12-08T01:11:20.438Z,14.75
2022-12-08T01:13:48.366Z,12.25
2022-12-08T01:16:22.812Z,13.25
2022-12-08T01:18:51.007Z,14.00
2022-12-08T01:21:20.282Z,13.50
2022-12-08T01:23:48.247Z,14.00
2022-12-08T01:26:16.962Z,13.00
2022-12-08T01:28:45.127Z,12.75
2022-12-08T01:31:14.390Z,13.00
2022-12-08T01:33:42.261Z,12.75
2022-12-08T01:36:11.226Z,13.00
2022-12-08T01:38:40.877Z,10.25
2022-12-08T01:41:08.729Z,12.50
2022-12-08T01:43:52.300Z,11.50
2022-12-08T01:46:20.217Z,10.00
2022-12-08T01:48:48.402Z,12.00
2022-12-08T01:51:16.299Z,11.25
2022-12-08T01:53:45.559Z,11.00
2022-12-08T01:56:14.738Z,11.50
2022-12-08T01:58:44.355Z,9.75
2022-12-08T02:01:12.273Z,9.00
2022-12-08T02:03:43.212Z,10.25
2022-12-08T02:06:11.106Z,9.25
2022-12-08T02:08:41.219Z,8.00
2022-12-08T02:11:11.956Z,8.75
2022-12-08T02:13:39.838Z,10.50
2022-12-08T02:16:11.753Z,10.00
2022-12-08T02:18:57.715Z,9.50
2022-12-08T02:21:37.239Z,8.00
2022-12-08T02:24:10.941Z,9.00
2022-12-08T02:27:25.527Z,9.25
2022-12-08T02:30:16.603Z,8.50
2022-12-08T02:33:26.381Z,8.75
2022-12-08T02:35:58.169Z,8.00
2022-12-08T02:38:34.378Z,8.75
2022-12-08T02:41:07.215Z,9.75
2022-12-08T02:43:37.010Z,9.00
2022-12-08T02:46:06.775Z,8.00
2022-12-08T02:48:34.875Z,8.50
2022-12-08T02:51:04.145Z,8.00
2022-12-08T02:53:32.309Z,9.00
2022-12-08T02:56:03.673Z,9.00
2022-12-08T02:58:59.233Z,7.00
2022-12-08T03:01:36.860Z,9.50
2022-12-08T03:04:07.372Z,7.25
2022-12-08T03:06:42.174Z,8.00
2022-12-08T03:09:11.772Z,6.00
2022-12-08T03:11:41.757Z,7.25
2022-12-08T03:14:10.146Z,9.50
2022-12-08T03:16:39.315Z,6.75
2022-12-08T03:19:09.790Z,7.50
2022-12-08T03:21:39.067Z,6.75
2022-12-08T03:24:08.524Z,6.75
2022-12-08T03:26:39.739Z,6.75
2022-12-08T03:29:07.605Z,7.25
2022-12-08T03:31:37.097Z,8.00
2022-12-08T03:34:05.000Z,7.00
2022-12-08T03:36:33.453Z,7.00
2022-12-08T03:41:46.591Z,6.25
2022-12-08T03:44:14.482Z,7.75
2022-12-08T03:46:42.479Z,6.00
2022-12-08T03:49:10.406Z,7.25
2022-12-08T03:51:38.292Z,7.00
2022-12-08T03:54:06.182Z,6.00
2022-12-08T03:56:35.062Z,7.75
2022-12-08T03:59:04.399Z,5.50
2022-12-08T04:01:32.284Z,6.25
2022-12-08T04:04:00.181Z,7.25
2022-12-08T04:06:28.333Z,6.75
2022-12-08T04:08:56.180Z,5.25
2022-12-08T04:11:24.064Z,6.25
2022-12-08T04:13:51.951Z,7.00
2022-12-08T04:16:22.783Z,5.00
2022-12-08T04:18:50.704Z,6.00
2022-12-08T04:21:18.595Z,6.25
2022-12-08T04:23:46.452Z,7.50
2022-12-08T04:26:14.658Z,5.50
2022-12-08T04:28:42.541Z,6.25
2022-12-08T04:31:10.442Z,5.00
2022-12-08T04:33:39.757Z,5.00
2022-12-08T04:36:08.581Z,5.25
2022-12-08T04:38:36.722Z,5.00
2022-12-08T04:41:04.606Z,5.50
2022-12-08T04:43:32.469Z,5.00
2022-12-08T04:46:00.370Z,5.75
2022-12-08T04:48:28.568Z,5.75
2022-12-08T04:50:57.826Z,6.25
2022-12-08T04:53:26.698Z,6.00
2022-12-08T04:55:54.606Z,5.00
2022-12-08T04:58:22.586Z,5.00
2022-12-08T05:00:50.566Z,5.00
2022-12-08T05:03:21.390Z,5.00
2022-12-08T05:05:53.090Z,5.00
2022-12-08T05:08:23.097Z,4.00
2022-12-08T05:10:51.027Z,6.00
2022-12-08T05:13:18.951Z,5.00
2022-12-08T05:15:46.848Z,4.75
2022-12-08T05:18:15.682Z,4.75
2022-12-08T05:20:43.649Z,5.00
2022-12-08T05:23:11.606Z,4.00
2022-12-08T05:25:40.933Z,4.00
2022-12-08T05:28:39.736Z,5.00
2022-12-08T05:30:57.011Z,5.00
2022-12-08T05:33:24.849Z,6.00
2022-12-08T05:35:52.790Z,7.75
2022-12-08T05:38:20.995Z,8.00
2022-12-08T05:40:50.252Z,9.00
2022-12-08T05:43:18.099Z,9.00
2022-12-08T05:45:46.038Z,9.00
2022-12-08T05:48:14.445Z,11.00
2022-12-08T05:50:47.218Z,11.75
2022-12-08T05:53:15.047Z,11.75
2022-12-08T05:55:42.953Z,14.25
2022-12-08T05:58:13.407Z,13.75
2022-12-08T06:00:41.339Z,15.00
2022-12-08T06:03:09.680Z,14.00
2022-12-08T06:05:37.604Z,14.25
2022-12-08T06:08:05.686Z,15.25
2022-12-08T06:10:33.872Z,13.25
2022-12-08T06:13:02.110Z,17.00
2022-12-08T06:15:31.381Z,15.75
2022-12-08T06:17:59.668Z,16.00
2022-12-08T06:20:27.573Z,15.75
2022-12-08T06:22:55.500Z,15.50
2022-12-08T06:25:23.427Z,14.50
2022-12-08T06:27:51.784Z,15.00
2022-12-08T06:30:19.849Z,13.50
2022-12-08T06:32:49.071Z,16.50
2022-12-08T06:35:17.026Z,15.25
2022-12-08T06:37:45.358Z,13.50
2022-12-08T06:40:14.159Z,15.00
2022-12-08T06:42:44.762Z,13.00
2022-12-08T06:45:12.934Z,13.00
2022-12-08T06:47:41.203Z,13.00
2022-12-08T06:50:11.266Z,13.50
2022-12-08T06:52:49.241Z,12.50
2022-12-08T06:55:42.512Z,11.50
2022-12-08T06:58:05.461Z,12.75
2022-12-08T07:00:33.323Z,12.50
2022-12-08T07:03:01.270Z,11.25
2022-12-08T07:05:30.561Z,11.50
2022-12-08T07:07:58.871Z,11.50
2022-12-08T07:10:26.757Z,12.00
2022-12-08T07:12:54.619Z,12.50
2022-12-08T07:15:22.590Z,11.50
2022-12-08T07:17:54.883Z,12.25
2022-12-08T07:20:25.955Z,11.00
2022-12-08T07:22:55.232Z,12.50
2022-12-08T07:25:23.175Z,13.75
2022-12-08T07:27:52.657Z,10.75
2022-12-08T07:30:20.604Z,10.25
2022-12-08T07:32:48.416Z,10.00
2022-12-08T07:35:16.359Z,11.50
2022-12-08T07:37:44.631Z,10.00
2022-12-08T07:40:15.073Z,11.00
2022-12-08T07:42:42.970Z,10.25
2022-12-08T07:45:11.330Z,11.25
2022-12-08T07:47:39.540Z,8.50
2022-12-08T07:50:08.928Z,10.00
2022-12-08T07:52:36.825Z,9.25
2022-12-08T07:55:05.027Z,8.50
2022-12-08T07:57:34.722Z,11.00
2022-12-08T08:00:03.104Z,10.50
2022-12-08T08:02:31.259Z,10.25
2022-12-08T08:04:59.290Z,8.25
2022-12-08T08:07:28.027Z,9.00
2022-12-08T08:09:55.930Z,10.00
2022-12-08T08:12:32.348Z,9.00
2022-12-08T08:15:02.307Z,7.50
2022-12-08T08:17:30.735Z,9.25
2022-12-08T08:19:58.743Z,9.75
2022-12-08T08:22:26.676Z,8.00
2022-12-08T08:24:54.532Z,7.00
2022-12-08T08:27:23.104Z,8.75
2022-12-08T08:29:51.008Z,8.00
2022-12-08T08:32:20.313Z,10.75
2022-12-08T08:34:48.181Z,9.00
2022-12-08T08:37:16.546Z,6.75
2022-12-08T08:39:44.457Z,8.50
2022-12-08T08:42:12.294Z,8.00
2022-12-08T08:44:40.218Z,8.75
2022-12-08T08:47:08.120Z,8.75
2022-12-08T08:49:37.358Z,8.00
2022-12-08T08:52:05.343Z,8.00
2022-12-08T08:54:33.195Z,8.00
2022-12-08T08:57:01.747Z,7.00
2022-12-08T08:59:29.853Z,8.00
2022-12-08T09:01:57.730Z,8.50
2022-12-08T09:04:26.412Z,6.75
2022-12-08T09:06:55.709Z,7.50
2022-12-08T09:09:23.567Z,7.00
2022-12-08T09:11:51.416Z,6.25
2022-12-08T09:14:19.317Z,9.00
2022-12-08T09:16:47.696Z,6.50
2022-12-08T09:19:15.697Z,7.00
2022-12-08T09:21:43.598Z,6.00
2022-12-08T09:24:15.890Z,7.00
2022-12-08T09:26:44.494Z,7.50
2022-12-08T09:29:13.647Z,7.00
2022-12-08T09:31:41.720Z,7.00
2022-12-08T09:34:09.722Z,8.75
2022-12-08T09:36:37.980Z,8.00
2022-12-08T09:39:05.847Z,7.00
2022-12-08T09:41:41.823Z,6.00
2022-12-08T09:44:31.336Z,7.00
2022-12-08T09:46:59.280Z,5.75
2022-12-08T09:49:29.526Z,6.75
2022-12-08T09:51:57.441Z,7.00
2022-12-08T09:54:35.106Z,6.25
2022-12-08T09:57:06.805Z,6.00
2022-12-08T09:59:35.567Z,6.75
2022-12-08T10:02:03.924Z,6.00
2022-12-08T10:04:33.039Z,6.75
2022-12-08T10:07:04.708Z,7.00
2022-12-08T10:09:37.282Z,6.00
2022-12-08T10:12:09.174Z,7.00
2022-12-08T10:14:41.163Z,6.75
2022-12-08T10:17:14.446Z,6.25
2022-12-08T10:19:42.469Z,7.00
2022-12-08T10:22:13.749Z,6.00
2022-12-08T10:24:44.505Z,6.00
2022-12-08T10:27:13.991Z,6.25
2022-12-08T10:29:41.889Z,6.50
2022-12-08T10:32:14.140Z,6.00
2022-12-08T10:35:00.363Z,6.50
2022-12-08T10:37:28.277Z,6.00
2022-12-08T10:40:01.292Z,6.00
2022-12-08T10:42:35.261Z,6.00
2022-12-08T10:45:12.062Z,6.25
2022-12-08T10:47:44.902Z,4.00
2022-12-08T10:50:21.108Z,5.00
2022-12-08T10:52:55.658Z,5.00
2022-12-08T10:55:23.677Z,6.00
2022-12-08T10:57:53.314Z,5.00
2022-12-08T11:00:22.489Z,6.00
2022-12-08T11:02:55.488Z,5.00
2022-12-08T11:05:24.455Z,4.00
2022-12-08T11:07:53.902Z,5.50
2022-12-08T11:10:22.280Z,4.25
2022-12-08T11:12:50.460Z,5.00
2022-12-08T11:15:20.062Z,5.00
2022-12-08T11:17:57.441Z,4.25
2022-12-08T11:20:25.725Z,4.00
2022-12-08T11:22:54.118Z,5.00
2022-12-08T11:25:22.623Z,5.00
2022-12-08T11:27:51.320Z,4.75
2022-12-08T11:30:21.791Z,4.00
2022-12-08T11:32:50.392Z,4.00
2022-12-08T11:35:24.678Z,4.50
2022-12-08T11:37:56.529Z,4.50
2022-12-08T11:40:32.946Z,6.00
2022-12-08T11:43:03.419Z,6.00
2022-12-08T11:45:34.280Z,4.00
2022-12-08T11:48:06.946Z,4.25
2022-12-08T11:50:40.671Z,5.00
2022-12-08T11:53:12.803Z,4.25
2022-12-08T11:55:46.642Z,4.75
2022-12-08T11:58:19.344Z,3.00
2022-12-08T12:00:48.719Z,4.00
2022-12-08T12:03:22.169Z,4.50
2022-12-08T12:06:13.663Z,4.00
2022-12-08T12:08:50.945Z,4.00
2022-12-08T12:11:42.123Z,3.50
2022-12-08T12:14:18.041Z,4.00
2022-12-08T12:17:01.356Z,4.25
2022-12-08T12:19:30.287Z,4.00
2022-12-08T12:21:58.659Z,4.00
2022-12-08T12:24:31.554Z,4.25
2022-12-08T12:27:06.675Z,4.75
2022-12-08T12:29:35.571Z,4.25
2022-12-08T12:32:05.531Z,4.25
2022-12-08T12:34:35.335Z,4.75
2022-12-08T12:37:06.845Z,6.00
2022-12-08T12:39:36.486Z,5.00
2022-12-08T12:42:05.357Z,3.75
2022-12-08T12:44:43.386Z,3.25
2022-12-08T12:47:16.381Z,4.00
2022-12-08T12:49:54.740Z,4.00
2022-12-08T12:52:45.234Z,4.00
2022-12-08T12:55:53.257Z,3.50
2022-12-08T12:58:36.788Z,4.75
2022-12-08T13:01:38.431Z,3.50
2022-12-08T13:04:08.579Z,4.00
2022-12-08T13:06:39.102Z,5.00
2022-12-08T13:09:07.266Z,3.00
2022-12-08T13:11:48.070Z,4.00
2022-12-08T13:14:27.848Z,4.00
2022-12-08T13:16:56.248Z,3.75
2022-12-08T13:19:25.599Z,4.00
2022-12-08T13:21:53.566Z,4.00
2022-12-08T13:24:29.983Z,4.00
2022-12-08T13:27:33.956Z,5.25
2022-12-08T13:30:39.168Z,4.00
2022-12-08T13:33:17.868Z,3.75
2022-12-08T13:35:50.361Z,3.75
2022-12-08T13:38:20.347Z,5.00
2022-12-08T13:40:48.406Z,4.00
2022-12-08T13:43:19.575Z,5.00
2022-12-08T13:50:05.833Z,4.00
2022-12-08T13:57:21.551Z,4.00
2022-12-08T13:59:49.591Z,3.50
2022-12-08T14:02:19.524Z,4.00
2022-12-08T14:05:17.431Z,3.50
2022-12-08T14:07:37.922Z,4.25
2022-12-08T14:10:09.008Z,4.00
2022-12-08T14:12:36.889Z,4.00
2022-12-08T14:15:11.953Z,3.00
2022-12-08T14:17:43.190Z,3.75
2022-12-08T14:20:20.227Z,5.00
2022-12-08T14:22:51.266Z,4.50
2022-12-08T14:25:19.168Z,3.00
2022-12-08T14:27:47.604Z,4.00
2022-12-08T14:30:20.149Z,3.00
2022-12-08T14:32:49.061Z,4.00
2022-12-08T14:35:21.932Z,4.00
2022-12-08T14:37:52.193Z,4.25
2022-12-08T14:40:24.666Z,4.00
2022-12-08T14:42:54.282Z,4.00
2022-12-08T14:45:22.297Z,3.25
2022-12-08T14:47:51.183Z,3.00
2022-12-08T14:50:38.389Z,4.00
2022-12-08T14:53:11.696Z,3.25
2022-12-08T14:55:39.593Z,4.75
2022-12-08T14:58:09.171Z,4.00
2022-12-08T15:00:38.644Z,4.00
2022-12-08T15:03:07.553Z,4.00
2022-12-08T15:05:36.429Z,4.75
2022-12-08T15:08:05.022Z,4.00
2022-12-08T15:10:38.057Z,4.00
2022-12-08T15:13:08.630Z,5.00
2022-12-08T15:15:50.059Z,3.50
2022-12-08T15:18:19.606Z,4.00
2022-12-08T15:20:48.531Z,4.00
2022-12-08T15:23:21.740Z,4.50
2022-12-08T15:25:51.118Z,4.00
2022-12-08T15:28:22.045Z,4.00
2022-12-08T15:30:52.176Z,3.50
2022-12-08T15:33:20.133Z,4.25
2022-12-08T15:35:48.399Z,4.00
2022-12-08T15:38:21.839Z,3.00
2022-12-08T15:40:51.191Z,4.25
2022-12-08T15:43:19.106Z,4.25
2022-12-08T15:45:57.799Z,5.75
2022-12-08T15:48:28.170Z,4.50
2022-12-08T15:50:56.205Z,4.00
2022-12-08T15:53:24.170Z,3.50
2022-12-08T15:56:25.804Z,5.00
2022-12-08T15:58:57.932Z,4.00
2022-12-08T16:01:26.608Z,5.50
2022-12-08T16:04:59.872Z,4.00
2022-12-08T16:07:20.973Z,3.25
2022-12-08T16:09:32.199Z,4.00
2022-12-08T16:12:19.036Z,4.00
2022-12-08T16:15:48.599Z,4.25
2022-12-08T16:17:35.249Z,3.50
2022-12-08T16:20:03.927Z,3.00
2022-12-08T16:25:22.095Z,4.50
2022-12-08T16:28:08.173Z,4.75
2022-12-08T16:30:40.719Z,4.75
2022-12-08T16:33:08.589Z,4.00
2022-12-08T16:35:36.430Z,5.00
2022-12-08T16:38:04.608Z,4.00
2022-12-08T16:40:32.652Z,5.00
2022-12-08T16:43:00.892Z,4.00
2022-12-08T16:45:30.077Z,4.25
2022-12-08T16:47:59.095Z,3.50
2022-12-08T16:50:27.789Z,3.00
2022-12-08T16:52:57.982Z,3.25
2022-12-08T16:55:25.841Z,4.50
2022-12-08T16:57:53.980Z,4.50
2022-12-08T17:00:24.430Z,3.75
2022-12-08T17:02:52.324Z,4.00
2022-12-08T17:05:21.103Z,4.00
2022-12-08T17:07:50.543Z,5.00
2022-12-08T17:10:25.086Z,4.00
2022-12-08T17:12:53.024Z,3.75
2022-12-08T17:15:22.382Z,4.75
2022-12-08T17:17:52.212Z,4.00
2022-12-08T17:20:21.140Z,3.00
2022-12-08T17:22:48.982Z,5.25
2022-12-08T17:25:16.913Z,6.00
2022-12-08T17:27:48.239Z,4.00
2022-12-08T17:30:20.998Z,5.00
2022-12-08T17:32:55.589Z,4.25
2022-12-08T17:35:23.468Z,3.50
2022-12-08T17:37:51.339Z,5.00
2022-12-08T17:40:19.761Z,4.00
2022-12-08T17:42:50.828Z,4.00
2022-12-08T17:45:20.425Z,5.00
2022-12-08T17:47:51.183Z,6.00
2022-12-08T17:50:20.756Z,3.25
2022-12-08T17:52:51.969Z,5.25
2022-12-08T17:55:19.821Z,3.00
2022-12-08T17:57:48.917Z,4.00
2022-12-08T18:00:17.173Z,3.50
2022-12-08T18:02:45.360Z,4.00
2022-12-08T18:05:18.435Z,4.00
2022-12-08T18:07:46.647Z,4.75
2022-12-08T18:10:14.525Z,4.75
2022-12-08T18:12:43.355Z,4.50
2022-12-08T18:15:13.002Z,3.50
2022-12-08T18:17:40.855Z,4.00
2022-12-08T18:20:11.038Z,4.00
2022-12-08T18:22:40.684Z,4.00
2022-12-08T18:25:09.585Z,4.50
2022-12-08T18:27:42.974Z,4.75
2022-12-08T18:30:15.075Z,4.00
2022-12-08T18:32:42.970Z,4.00
2022-12-08T18:35:11.597Z,4.00
2022-12-08T18:37:40.865Z,4.00
2022-12-08T18:40:10.303Z,3.00
2022-12-08T18:42:38.190Z,4.00
2022-12-08T18:45:09.779Z,4.75
2022-12-08T18:47:38.763Z,5.00
2022-12-08T18:50:08.080Z,6.00
2022-12-08T18:52:36.213Z,4.00
2022-12-08T18:55:06.980Z,3.75
2022-12-08T18:57:35.512Z,4.00
2022-12-08T19:00:04.312Z,4.25
2022-12-08T19:02:33.165Z,4.25
2022-12-08T19:05:01.332Z,5.00
2022-12-08T19:07:29.173Z,3.00
2022-12-08T19:09:58.755Z,4.50
2022-12-08T19:12:28.352Z,5.00
2022-12-08T19:14:56.212Z,4.00
2022-12-08T19:17:25.756Z,4.00
2022-12-08T19:19:53.709Z,5.00
2022-12-08T19:22:21.853Z,4.00
2022-12-08T19:24:49.894Z,4.75
2022-12-08T19:27:18.645Z,5.25
2022-12-08T19:29:48.051Z,5.50
2022-12-08T19:32:16.206Z,5.00
2022-12-08T19:34:44.114Z,5.00
2022-12-08T19:37:13.065Z,5.00
2022-12-08T19:39:58.772Z,4.00
2022-12-08T19:42:44.176Z,4.00
2022-12-08T19:45:15.133Z,4.00
2022-12-08T19:47:43.058Z,5.00
2022-12-08T19:50:28.899Z,6.25
2022-12-08T19:52:57.214Z,4.75
2022-12-08T19:55:25.280Z,6.00
2022-12-08T19:57:53.453Z,4.25
2022-12-08T20:00:23.293Z,5.00
2022-12-08T20:02:51.408Z,5.50
2022-12-08T20:05:19.444Z,5.00
2022-12-08T20:07:47.407Z,6.00
2022-12-08T20:10:17.789Z,5.00
2022-12-08T20:12:45.665Z,5.25
2022-12-08T20:15:14.728Z,5.00
2022-12-08T20:17:44.061Z,5.00
2022-12-08T20:20:13.804Z,6.00
2022-12-08T20:22:42.580Z,5.00
2022-12-08T20:25:12.999Z,5.25
2022-12-08T20:27:41.328Z,5.75
2022-12-08T20:30:16.934Z,5.00
2022-12-08T20:32:47.117Z,5.00
2022-12-08T20:35:15.839Z,6.00
2022-12-08T20:37:43.702Z,5.50
2022-12-08T20:40:12.322Z,7.00
2022-12-08T20:42:40.266Z,5.75
2022-12-08T20:45:10.392Z,6.00
2022-12-08T20:47:38.518Z,6.00
2022-12-08T20:50:09.258Z,6.50
2022-12-08T20:52:38.379Z,5.00
2022-12-08T20:55:07.030Z,6.75
2022-12-08T20:57:34.990Z,6.00
2022-12-08T21:00:03.280Z,5.25
2022-12-08T21:02:31.972Z,5.00
2022-12-08T21:05:00.163Z,6.50
2022-12-08T21:07:29.594Z,5.75
2022-12-08T21:09:57.523Z,5.75
2022-12-08T21:12:26.593Z,5.50
2022-12-08T21:14:54.627Z,4.75
2022-12-08T21:17:22.577Z,6.00
2022-12-08T21:19:50.777Z,5.00
2022-12-08T21:22:20.781Z,6.50
2022-12-08T21:24:50.427Z,7.75
2022-12-08T21:27:18.457Z,5.75
2022-12-08T21:29:46.368Z,5.00
2022-12-08T21:32:14.456Z,5.50
2022-12-08T21:34:44.274Z,5.00
2022-12-08T21:37:12.331Z,7.00
2022-12-08T21:39:40.360Z,6.25
2022-12-08T21:42:33.680Z,6.00
2022-12-08T21:45:02.097Z,7.00
2022-12-08T21:47:30.281Z,7.00
2022-12-08T21:49:58.433Z,6.50
2022-12-08T21:52:26.396Z,6.00
2022-12-08T21:54:54.490Z,6.75
2022-12-08T21:57:24.537Z,6.00
2022-12-08T21:59:52.506Z,6.00
2022-12-08T22:02:22.678Z,7.00
2022-12-08T22:04:52.507Z,7.00
2022-12-08T22:07:20.737Z,6.00
2022-12-08T22:09:49.227Z,7.00
2022-12-08T22:12:17.598Z,6.00
2022-12-08T22:14:48.563Z,7.00
2022-12-08T22:17:16.673Z,7.00
2022-12-08T22:19:44.655Z,6.00
2022-12-08T22:22:12.928Z,6.25
2022-12-08T22:24:40.912Z,6.75
2022-12-08T22:27:08.916Z,7.25
2022-12-08T22:29:36.845Z,7.00
2022-12-08T22:32:06.839Z,5.00
2022-12-08T22:34:34.924Z,7.00
2022-12-08T22:37:03.059Z,6.00
2022-12-08T22:39:30.958Z,6.75
2022-12-08T22:41:59.190Z,6.00
2022-12-08T22:44:27.331Z,6.75
2022-12-08T22:46:55.546Z,6.75
2022-12-08T22:49:25.876Z,8.00
2022-12-08T22:51:54.243Z,7.00
2022-12-08T22:54:22.172Z,6.25
2022-12-08T22:56:50.107Z,5.25
2022-12-08T22:59:18.192Z,6.25
2022-12-08T23:01:46.606Z,5.00
2022-12-08T23:04:17.954Z,6.25
2022-12-08T23:06:47.884Z,6.75
2022-12-08T23:09:15.947Z,7.75
2022-12-08T23:11:45.472Z,9.25
2022-12-08T23:14:13.410Z,6.00
2022-12-08T23:16:41.294Z,6.00
2022-12-08T23:19:09.849Z,7.00
2022-12-08T23:21:38.067Z,8.00
2022-12-08T23:24:07.626Z,6.50
2022-12-08T23:26:35.933Z,9.75
2022-12-08T23:29:04.018Z,10.50
2022-12-08T23:31:32.248Z,10.00
2022-12-08T23:34:00.367Z,13.75
2022-12-08T23:36:28.307Z,14.00
2022-12-08T23:38:56.201Z,13.50
2022-12-08T23:41:25.734Z,17.00
2022-12-08T23:43:53.691Z,18.75
2022-12-08T23:46:22.588Z,18.25
2022-12-08T23:48:50.625Z,19.25
2022-12-08T23:51:19.027Z,20.25
2022-12-08T23:53:46.989Z,22.00
2022-12-08T23:56:15.709Z,23.00
2022-12-08T23:58:45.134Z,27.00
